Time;durP1;ratioP1;P1;durP2;ratioP2;P2;SDS_P1;SDS_P2;PMS_P1;PMS_P2;Temp;Humidity;BMP_temperature;BMP_pressure;BME280_temperature;BME280_humidity;BME280_pressure;Samples;Min_cycle;Max_cycle;Signal;HPM_P1;HPM_P2
2023/06/05 00:02:12;;;;;;;7.00;5.30;;;11.70;99.90;;;;;;6162516;23;20021;-66
2023/06/05 00:04:39;;;;;;;9.90;4.90;;;11.70;99.90;;;;;;6162661;23;20386;-67
2023/06/05 00:07:08;;;;;;;9.45;4.78;;;11.70;99.90;;;;;;6188300;23;20017;-66
2023/06/05 00:09:34;;;;;;;6.18;4.05;;;11.70;99.90;;;;;;6163619;23;20532;-65
2023/06/05 00:12:00;;;;;;;6.82;4.95;;;11.60;99.90;;;;;;6161273;23;20017;-65
2023/06/05 00:14:25;;;;;;;6.28;4.85;;;11.60;99.90;;;;;;6189692;23;20684;-66
2023/06/05 00:16:51;;;;;;;8.45;4.75;;;11.50;99.90;;;;;;6188043;23;20021;-65
2023/06/05 00:19:17;;;;;;;5.95;4.60;;;11.60;99.90;;;;;;6188964;23;20577;-65
2023/06/05 00:21:43;;;;;;;9.32;5.60;;;11.60;99.90;;;;;;6189399;23;20048;-67
2023/06/05 00:24:08;;;;;;;9.52;4.47;;;11.50;99.90;;;;;;6187884;23;20018;-65
2023/06/05 00:26:34;;;;;;;6.32;4.63;;;11.50;99.90;;;;;;6190008;23;20020;-65
2023/06/05 00:29:00;;;;;;;4.80;4.28;;;11.50;99.90;;;;;;6161165;23;20606;-65
2023/06/05 00:31:26;;;;;;;7.20;4.35;;;11.40;99.90;;;;;;6189643;23;20414;-65
2023/06/05 00:33:51;;;;;;;7.28;4.75;;;11.40;99.90;;;;;;6188005;23;20024;-65
2023/06/05 00:36:18;;;;;;;7.15;4.75;;;11.40;99.90;;;;;;6162544;23;20190;-65
2023/06/05 00:38:45;;;;;;;6.78;4.70;;;11.30;99.90;;;;;;6162590;23;20024;-65
2023/06/05 00:41:11;;;;;;;10.18;4.72;;;11.30;99.90;;;;;;6188272;23;20024;-65
2023/06/05 00:43:37;;;;;;;7.82;4.22;;;11.30;99.90;;;;;;6163315;23;20092;-65
2023/06/05 00:46:04;;;;;;;6.55;4.45;;;11.30;99.90;;;;;;6187709;23;20017;-65
2023/06/05 00:48:31;;;;;;;8.82;4.32;;;11.30;99.90;;;;;;6189416;23;20013;-65
2023/06/05 00:50:57;;;;;;;7.93;4.85;;;11.30;99.90;;;;;;6187958;23;20060;-65
2023/06/05 00:53:24;;;;;;;8.32;5.10;;;11.20;99.90;;;;;;6189526;23;20104;-65
2023/06/05 00:55:51;;;;;;;11.20;6.28;;;11.10;99.90;;;;;;6162289;23;20017;-64
2023/06/05 00:58:17;;;;;;;7.95;4.80;;;11.20;99.90;;;;;;6186965;23;20028;-66
2023/06/05 01:00:45;;;;;;;12.45;5.22;;;11.20;99.90;;;;;;6189090;23;20056;-66
2023/06/05 01:03:12;;;;;;;6.80;4.43;;;11.10;99.90;;;;;;6160601;23;20136;-65
2023/06/05 01:05:38;;;;;;;8.15;5.20;;;11.10;99.90;;;;;;6163058;23;20020;-66
2023/06/05 01:08:05;;;;;;;8.57;4.60;;;11.10;99.90;;;;;;6187587;23;20067;-65
2023/06/05 01:10:32;;;;;;;10.88;5.45;;;11.10;99.90;;;;;;6189061;23;20021;-65
2023/06/05 01:13:01;;;;;;;6.80;4.72;;;11.10;99.90;;;;;;6137345;23;20154;-66
2023/06/05 01:15:29;;;;;;;8.23;5.20;;;11.10;99.90;;;;;;6160892;23;20101;-66
2023/06/05 01:18:00;;;;;;;7.70;4.60;;;11.10;99.90;;;;;;6162820;23;20060;-65
2023/06/05 01:20:35;;;;;;;6.30;5.10;;;11.10;99.90;;;;;;6188146;23;20040;-66
2023/06/05 01:23:05;;;;;;;8.70;6.13;;;11.00;99.90;;;;;;6193672;23;20029;-65
2023/06/05 01:25:32;;;;;;;7.45;4.43;;;11.00;99.90;;;;;;6174219;23;20025;-65
2023/06/05 01:28:28;;;;;;;9.25;5.13;;;10.90;99.90;;;;;;6195428;23;20017;-66
2023/06/05 01:31:01;;;;;;;7.00;5.40;;;10.80;99.90;;;;;;6165150;23;20028;-65
2023/06/05 01:33:41;;;;;;;;;;;10.80;99.90;;;;;;6187800;23;20017;-65
2023/06/05 01:36:10;;;;;;;10.82;5.20;;;10.70;99.90;;;;;;6162327;23;19916;-65
2023/06/05 01:38:38;;;;;;;8.95;5.18;;;10.80;99.90;;;;;;6161560;23;20055;-65
2023/06/05 01:41:05;;;;;;;7.85;5.75;;;10.70;99.90;;;;;;6187383;23;20068;-66
2023/06/05 01:43:32;;;;;;;8.05;4.70;;;10.70;99.90;;;;;;6161825;23;20083;-66
2023/06/05 01:45:59;;;;;;;7.15;5.10;;;10.70;99.90;;;;;;6160326;23;20073;-65
2023/06/05 01:48:27;;;;;;;6.45;5.03;;;10.70;99.90;;;;;;6188954;23;20021;-66
2023/06/05 01:50:57;;;;;;;8.50;5.45;;;10.70;99.90;;;;;;6187017;23;20017;-65
2023/06/05 01:53:23;;;;;;;10.80;5.00;;;10.60;99.90;;;;;;6188541;23;20024;-65
2023/06/05 01:55:52;;;;;;;10.05;5.05;;;10.60;99.90;;;;;;6187976;23;20612;-66
2023/06/05 01:58:19;;;;;;;8.98;5.25;;;10.60;99.90;;;;;;6187129;23;20021;-65
2023/06/05 02:00:46;;;;;;;12.35;5.95;;;10.60;99.90;;;;;;6190564;23;20021;-65
2023/06/05 02:03:15;;;;;;;10.20;5.55;;;10.50;99.90;;;;;;6188726;23;20032;-65
2023/06/05 02:05:42;;;;;;;7.97;5.00;;;10.60;99.90;;;;;;6190693;23;20593;-65
2023/06/05 02:08:09;;;;;;;12.68;5.35;;;10.50;99.90;;;;;;6162564;23;20016;-65
2023/06/05 02:10:37;;;;;;;8.80;5.25;;;10.50;99.90;;;;;;6163516;23;20088;-65
2023/06/05 02:13:03;;;;;;;7.18;5.18;;;10.50;99.90;;;;;;6189943;23;20020;-65
2023/06/05 02:15:31;;;;;;;10.93;6.03;;;10.40;99.90;;;;;;6189103;23;20055;-65
2023/06/05 02:17:57;;;;;;;9.52;5.70;;;10.40;99.90;;;;;;6164495;23;20017;-65
2023/06/05 02:20:27;;;;;;;9.38;5.60;;;10.40;99.90;;;;;;6192311;23;20017;-67
2023/06/05 02:22:54;;;;;;;8.73;5.72;;;10.30;99.90;;;;;;6207966;23;20044;-65
2023/06/05 02:25:21;;;;;;;11.93;6.05;;;10.20;99.90;;;;;;6200686;23;20021;-65
2023/06/05 02:27:47;;;;;;;8.02;5.47;;;10.30;99.90;;;;;;6201513;23;20024;-65
2023/06/05 02:30:13;;;;;;;10.32;5.65;;;10.30;99.90;;;;;;6172075;23;20470;-66
2023/06/05 02:32:45;;;;;;;10.25;5.43;;;10.30;99.90;;;;;;6141122;23;20097;-66
2023/06/05 02:35:12;;;;;;;9.23;5.78;;;10.30;99.90;;;;;;6191193;23;20021;-65
2023/06/05 02:37:43;;;;;;;13.20;6.25;;;10.30;99.90;;;;;;6161664;23;20028;-65
2023/06/05 02:40:12;;;;;;;9.88;6.85;;;10.20;99.90;;;;;;6163582;23;20048;-64
2023/06/05 02:42:38;;;;;;;10.85;6.43;;;10.20;99.90;;;;;;6162087;23;20029;-65
2023/06/05 02:45:05;;;;;;;8.00;5.70;;;10.20;99.90;;;;;;6162882;23;20040;-66
2023/06/05 02:47:31;;;;;;;9.02;5.15;;;10.20;99.90;;;;;;6163926;23;20028;-65
2023/06/05 02:50:01;;;;;;;7.90;5.60;;;10.10;99.90;;;;;;6188726;23;20072;-65
2023/06/05 02:52:34;;;;;;;13.38;6.20;;;10.10;99.90;;;;;;6191053;23;20036;-67
2023/06/05 02:55:01;;;;;;;10.38;6.93;;;10.10;99.90;;;;;;6189090;23;20016;-67
2023/06/05 02:57:27;;;;;;;7.28;5.47;;;10.20;99.90;;;;;;6190620;23;20017;-67
2023/06/05 02:59:53;;;;;;;10.23;5.53;;;10.10;99.90;;;;;;6162836;23;20021;-67
2023/06/05 03:02:19;;;;;;;8.40;5.85;;;10.10;99.90;;;;;;6189891;23;20017;-67
2023/06/05 03:04:48;;;;;;;11.20;5.65;;;10.10;99.90;;;;;;6190682;23;20021;-65
2023/06/05 03:07:14;;;;;;;11.52;5.90;;;10.10;99.90;;;;;;6162170;23;20017;-65
2023/06/05 03:09:40;;;;;;;9.15;5.75;;;10.10;99.90;;;;;;6164525;23;20438;-66
2023/06/05 03:12:06;;;;;;;8.70;5.53;;;10.00;99.90;;;;;;6161344;23;20036;-66
2023/06/05 03:14:32;;;;;;;9.52;5.15;;;10.10;99.90;;;;;;6163799;23;20103;-65
2023/06/05 03:16:58;;;;;;;8.52;5.00;;;10.00;99.90;;;;;;6189553;23;20017;-65
2023/06/05 03:19:25;;;;;;;9.77;5.60;;;10.10;99.90;;;;;;6189350;23;20060;-65
2023/06/05 03:21:50;;;;;;;6.47;5.32;;;10.20;99.90;;;;;;6190569;23;20025;-65
2023/06/05 03:24:16;;;;;;;10.43;6.82;;;10.00;99.90;;;;;;6187870;23;20032;-65
2023/06/05 03:26:43;;;;;;;10.48;6.13;;;10.10;99.90;;;;;;6190681;23;20017;-65
2023/06/05 03:29:12;;;;;;;9.85;5.78;;;10.00;99.90;;;;;;6187913;23;20343;-65
2023/06/05 03:31:38;;;;;;;9.93;6.30;;;10.00;99.90;;;;;;6190336;23;20025;-67
2023/06/05 03:34:05;;;;;;;12.07;5.82;;;10.00;99.90;;;;;;6162450;23;20017;-67
2023/06/05 03:36:33;;;;;;;14.15;6.20;;;9.90;99.90;;;;;;6162979;23;20075;-67
2023/06/05 03:38:59;;;;;;;12.68;6.70;;;9.90;99.90;;;;;;6190017;23;20087;-67
2023/06/05 03:41:25;;;;;;;10.77;6.20;;;9.90;99.90;;;;;;6161519;23;20035;-67
2023/06/05 03:43:52;;;;;;;7.68;5.88;;;9.90;99.90;;;;;;6163516;23;20028;-67
2023/06/05 03:46:18;;;;;;;9.45;6.32;;;9.90;99.90;;;;;;6161218;23;20021;-67
2023/06/05 03:49:09;;;;;;;9.95;6.70;;;9.90;99.90;;;;;;6189625;23;20024;-67
2023/06/05 03:51:34;;;;;;;8.77;6.00;;;10.00;99.90;;;;;;6161764;23;20055;-67
2023/06/05 03:54:00;;;;;;;12.27;6.97;;;10.00;99.90;;;;;;6188079;23;20029;-67
2023/06/05 03:56:34;;;;;;;10.43;6.60;;;10.00;99.90;;;;;;6163310;23;20021;-68
2023/06/05 03:59:16;;;;;;;13.63;6.60;;;10.00;99.90;;;;;;6161234;23;20044;-67
2023/06/05 04:01:42;;;;;;;11.32;6.50;;;10.10;99.90;;;;;;6189360;23;20021;-67
2023/06/05 04:04:08;;;;;;;13.77;6.68;;;10.10;99.90;;;;;;6188890;23;20072;-68
2023/06/05 04:06:34;;;;;;;11.52;6.85;;;10.00;99.90;;;;;;6161962;23;20028;-67
2023/06/05 04:09:00;;;;;;;8.95;5.90;;;10.20;99.90;;;;;;6162898;23;20017;-67
2023/06/05 04:11:26;;;;;;;9.20;6.28;;;10.10;99.90;;;;;;6160860;23;20025;-67
2023/06/05 04:13:55;;;;;;;10.43;6.35;;;10.20;99.90;;;;;;6189840;23;20079;-67
2023/06/05 04:16:20;;;;;;;10.13;5.70;;;10.20;99.90;;;;;;6187138;23;20021;-68
2023/06/05 04:18:46;;;;;;;10.95;6.10;;;10.30;99.90;;;;;;6162699;23;20381;-67
2023/06/05 04:21:12;;;;;;;11.30;6.55;;;10.40;99.90;;;;;;6161935;23;20056;-67
2023/06/05 04:23:38;;;;;;;11.23;7.28;;;10.40;99.90;;;;;;6188450;23;20024;-67
2023/06/05 04:26:04;;;;;;;8.93;5.30;;;10.40;99.90;;;;;;6162888;23;20036;-67
2023/06/05 04:28:31;;;;;;;11.02;5.57;;;10.40;99.90;;;;;;6136511;23;20025;-67
2023/06/05 04:30:57;;;;;;;14.07;6.93;;;10.50;99.90;;;;;;6189880;23;20412;-67
2023/06/05 04:33:22;;;;;;;11.32;6.15;;;10.60;99.90;;;;;;6160946;23;20021;-67
2023/06/05 04:35:48;;;;;;;11.07;6.28;;;10.60;99.90;;;;;;6162773;23;20029;-67
2023/06/05 04:38:14;;;;;;;10.85;5.72;;;10.60;99.90;;;;;;6187952;23;20017;-67
2023/06/05 04:40:40;;;;;;;9.75;5.72;;;10.70;99.90;;;;;;6162229;23;20020;-68
2023/06/05 04:43:08;;;;;;;10.40;5.43;;;10.80;99.90;;;;;;6162777;23;20028;-67
2023/06/05 04:45:35;;;;;;;10.30;6.20;;;10.90;99.90;;;;;;6187624;23;20027;-67
2023/06/05 04:48:00;;;;;;;9.63;6.45;;;11.00;99.90;;;;;;6188883;23;20025;-67
2023/06/05 04:50:28;;;;;;;8.10;5.50;;;11.10;99.90;;;;;;6187255;23;20025;-67
2023/06/05 04:52:54;;;;;;;14.82;5.72;;;11.20;99.90;;;;;;6162914;23;20021;-67
2023/06/05 04:55:20;;;;;;;8.27;5.90;;;11.30;99.90;;;;;;6136815;23;20021;-67
2023/06/05 04:57:48;;;;;;;9.38;5.50;;;11.40;99.90;;;;;;6162195;23;20059;-67
2023/06/05 05:00:15;;;;;;;8.82;6.00;;;11.50;99.90;;;;;;6189348;23;20036;-67
2023/06/05 05:02:40;;;;;;;9.15;6.10;;;11.60;99.90;;;;;;6187702;23;20017;-65
2023/06/05 05:05:07;;;;;;;8.30;6.00;;;11.70;99.90;;;;;;6189890;23;20024;-65
2023/06/05 05:07:33;;;;;;;9.73;6.07;;;11.70;99.90;;;;;;6160842;23;20047;-66
2023/06/05 05:09:59;;;;;;;11.80;6.75;;;11.80;99.90;;;;;;6189814;23;20044;-65
2023/06/05 05:12:25;;;;;;;12.55;7.32;;;11.80;99.90;;;;;;6164896;23;20016;-66
2023/06/05 05:14:51;;;;;;;10.48;5.80;;;12.00;99.90;;;;;;6194155;23;20443;-65
2023/06/05 05:17:19;;;;;;;12.50;5.95;;;12.00;99.90;;;;;;6195045;23;20017;-66
2023/06/05 05:19:45;;;;;;;11.55;5.82;;;12.10;99.90;;;;;;6193974;23;20025;-65
2023/06/05 05:22:11;;;;;;;7.25;5.32;;;12.10;99.90;;;;;;6202398;23;20009;-66
2023/06/05 05:24:37;;;;;;;9.80;5.85;;;12.20;99.90;;;;;;6202444;23;20048;-66
2023/06/05 05:27:02;;;;;;;9.75;5.63;;;12.20;99.90;;;;;;6201865;23;20017;-65
2023/06/05 05:29:29;;;;;;;9.73;5.95;;;12.20;99.90;;;;;;6201061;23;20086;-66
2023/06/05 05:31:55;;;;;;;16.88;5.85;;;12.30;99.90;;;;;;6171611;23;20025;-65
2023/06/05 05:34:21;;;;;;;8.70;5.53;;;12.40;99.90;;;;;;6170537;23;20048;-66
2023/06/05 05:36:47;;;;;;;10.02;5.50;;;12.50;99.90;;;;;;6162708;23;20025;-66
2023/06/05 05:39:13;;;;;;;8.45;5.60;;;12.60;99.90;;;;;;6140084;23;20027;-67
2023/06/05 05:41:40;;;;;;;8.63;5.45;;;12.80;99.90;;;;;;6188702;23;20025;-67
2023/06/05 05:44:06;;;;;;;7.13;5.35;;;12.80;99.90;;;;;;6190845;23;20071;-65
2023/06/05 05:46:32;;;;;;;10.25;5.30;;;12.80;99.90;;;;;;6189251;23;20024;-65
2023/06/05 05:48:58;;;;;;;9.38;5.35;;;12.80;99.90;;;;;;6190632;23;20013;-65
2023/06/05 05:51:24;;;;;;;8.38;5.75;;;12.80;99.90;;;;;;6191609;23;20092;-66
2023/06/05 05:53:50;;;;;;;7.15;4.45;;;12.90;99.90;;;;;;6194046;23;20024;-66
2023/06/05 05:56:16;;;;;;;8.63;5.47;;;13.00;99.90;;;;;;6190939;23;20041;-66
2023/06/05 05:58:42;;;;;;;10.95;5.97;;;13.00;99.90;;;;;;6188573;23;20080;-67
2023/06/05 06:01:08;;;;;;;7.35;5.72;;;13.00;99.90;;;;;;6163879;23;20899;-68
2023/06/05 06:03:36;;;;;;;9.60;5.35;;;13.10;99.90;;;;;;6188888;23;20020;-67
2023/06/05 06:06:06;;;;;;;7.60;5.43;;;13.20;99.90;;;;;;6190005;23;20017;-67
2023/06/05 06:08:33;;;;;;;9.20;5.38;;;13.30;99.90;;;;;;6163124;23;20017;-68
2023/06/05 06:10:59;;;;;;;12.52;5.45;;;13.40;99.90;;;;;;6162774;23;20850;-66
2023/06/05 06:13:25;;;;;;;6.85;5.07;;;13.30;99.90;;;;;;6190451;23;20021;-65
2023/06/05 06:15:51;;;;;;;8.70;4.72;;;13.40;99.90;;;;;;6188446;23;20025;-66
2023/06/05 06:18:17;;;;;;;7.35;4.53;;;13.50;99.90;;;;;;6163548;23;20021;-66
2023/06/05 06:20:43;;;;;;;8.52;4.97;;;13.50;99.90;;;;;;6161499;23;20160;-65
2023/06/05 06:23:09;;;;;;;10.98;4.75;;;13.60;99.90;;;;;;6189008;23;20148;-67
2023/06/05 06:25:34;;;;;;;9.52;5.15;;;13.60;99.90;;;;;;6161987;23;20021;-67
2023/06/05 06:28:01;;;;;;;8.82;5.20;;;13.60;99.90;;;;;;6161945;23;20021;-66
2023/06/05 06:30:27;;;;;;;7.90;4.40;;;13.60;99.90;;;;;;6162874;23;20339;-66
2023/06/05 06:32:57;;;;;;;8.60;5.32;;;13.70;99.90;;;;;;6160668;23;20021;-68
2023/06/05 06:35:27;;;;;;;8.10;5.07;;;13.80;99.90;;;;;;6162922;23;20021;-67
2023/06/05 06:37:54;;;;;;;7.88;4.50;;;13.80;99.90;;;;;;6188004;23;20023;-67
2023/06/05 06:40:20;;;;;;;8.52;5.28;;;13.90;99.90;;;;;;6163200;23;20025;-66
2023/06/05 06:42:46;;;;;;;8.48;4.45;;;13.90;99.90;;;;;;6162560;23;20021;-66
2023/06/05 06:45:12;;;;;;;7.35;4.65;;;13.90;99.90;;;;;;6188753;23;20059;-66
2023/06/05 06:47:38;;;;;;;6.75;4.60;;;14.00;99.90;;;;;;6163632;23;20051;-66
2023/06/05 06:50:04;;;;;;;8.40;4.97;;;14.00;99.90;;;;;;6188188;23;20053;-66
2023/06/05 06:52:30;;;;;;;7.55;4.40;;;14.00;99.90;;;;;;6163764;23;20446;-66
2023/06/05 06:54:56;;;;;;;6.40;4.18;;;14.10;99.90;;;;;;6188442;23;20068;-66
2023/06/05 06:57:22;;;;;;;7.60;4.03;;;14.20;99.90;;;;;;6163237;23;20021;-68
2023/06/05 06:59:47;;;;;;;8.00;4.32;;;14.20;99.90;;;;;;6189132;23;20450;-67
2023/06/05 07:02:16;;;;;;;5.15;4.05;;;14.20;99.90;;;;;;6188846;23;20021;-67
2023/06/05 07:04:43;;;;;;;6.25;4.05;;;14.30;99.90;;;;;;6163820;23;20020;-67
2023/06/05 07:07:12;;;;;;;6.40;4.68;;;14.30;99.90;;;;;;6161544;23;20017;-67
2023/06/05 07:09:41;;;;;;;8.10;4.75;;;14.60;99.90;;;;;;6163733;23;20025;-66
2023/06/05 07:12:11;;;;;;;6.15;4.47;;;14.70;99.90;;;;;;6188348;23;20017;-66
2023/06/05 07:14:38;;;;;;;9.35;5.00;;;14.80;99.90;;;;;;6189983;23;20028;-67
2023/06/05 07:17:04;;;;;;;11.55;4.78;;;14.80;99.90;;;;;;6162854;23;20024;-67
2023/06/05 07:19:34;;;;;;;7.20;4.35;;;14.80;99.90;;;;;;6162615;23;20400;-66
2023/06/05 07:22:04;;;;;;;7.43;4.13;;;15.00;99.90;;;;;;6190438;23;20021;-67
2023/06/05 07:24:30;;;;;;;10.05;5.22;;;14.90;99.90;;;;;;6188130;23;20080;-66
2023/06/05 07:26:59;;;;;;;7.35;4.35;;;14.80;99.90;;;;;;6190450;23;20658;-70
2023/06/05 07:29:25;;;;;;;8.48;4.80;;;14.80;99.90;;;;;;6161064;23;20017;-68
2023/06/05 07:31:54;;;;;;;5.97;4.43;;;14.70;99.90;;;;;;6189326;23;20031;-67
2023/06/05 07:34:21;;;;;;;12.60;5.00;;;14.80;99.90;;;;;;6188812;23;20025;-67
2023/06/05 07:36:49;;;;;;;7.38;4.60;;;14.80;99.90;;;;;;6188469;23;20064;-66
2023/06/05 07:39:16;;;;;;;11.55;6.03;;;14.90;99.90;;;;;;6190299;23;20017;-65
2023/06/05 07:41:42;;;;;;;8.80;5.70;;;15.00;99.90;;;;;;6187751;23;20489;-66
2023/06/05 07:44:14;;;;;;;9.77;5.43;;;15.20;99.90;;;;;;6189744;23;20052;-69
2023/06/05 07:46:41;;;;;;;8.23;5.30;;;15.20;99.90;;;;;;6161769;23;20131;-65
2023/06/05 07:49:08;;;;;;;12.88;4.93;;;15.30;99.90;;;;;;6189407;23;20049;-66
2023/06/05 07:51:36;;;;;;;7.60;4.60;;;15.30;99.90;;;;;;6189604;23;20021;-66
2023/06/05 07:54:06;;;;;;;6.13;3.80;;;15.50;99.90;;;;;;6188371;23;20024;-66
2023/06/05 07:56:33;;;;;;;6.07;4.07;;;15.30;99.90;;;;;;6190048;23;20560;-65
2023/06/05 07:59:03;;;;;;;175.98;104.15;;;15.50;99.90;;;;;;6160907;23;20024;-68
2023/06/05 08:01:29;;;;;;;58.55;37.08;;;15.60;99.90;;;;;;6162805;23;20024;-65
2023/06/05 08:03:55;;;;;;;9.70;6.57;;;16.00;99.90;;;;;;6188264;23;20024;-66
2023/06/05 08:06:24;;;;;;;8.20;5.15;;;16.00;99.90;;;;;;6191950;23;20048;-66
2023/06/05 08:08:50;;;;;;;6.97;4.50;;;16.00;99.90;;;;;;6194313;23;20017;-66
2023/06/05 08:11:16;;;;;;;5.75;4.38;;;16.00;99.90;;;;;;6162422;23;20035;-66
2023/06/05 08:13:42;;;;;;;6.22;5.03;;;16.10;99.90;;;;;;6189802;23;20017;-66
2023/06/05 08:16:07;;;;;;;6.68;4.07;;;16.10;99.90;;;;;;6192318;23;20025;-66
2023/06/05 08:18:33;;;;;;;5.93;4.07;;;16.10;99.90;;;;;;6206353;23;20045;-66
2023/06/05 08:20:59;;;;;;;6.05;4.00;;;16.10;99.90;;;;;;6173501;23;20029;-66
2023/06/05 08:23:26;;;;;;;4.65;3.30;;;16.10;99.90;;;;;;6200251;23;20056;-67
2023/06/05 08:25:51;;;;;;;4.43;3.13;;;16.30;99.90;;;;;;6195754;23;20029;-67
2023/06/05 08:28:17;;;;;;;8.82;4.85;;;16.40;99.90;;;;;;6190540;23;20039;-66
2023/06/05 08:30:44;;;;;;;5.10;3.17;;;16.40;99.90;;;;;;6163457;23;20016;-67
2023/06/05 08:33:10;;;;;;;7.38;2.95;;;16.40;99.90;;;;;;6161206;23;20014;-66
2023/06/05 08:35:36;;;;;;;5.00;2.72;;;16.50;99.90;;;;;;6189057;23;20016;-66
2023/06/05 08:38:03;;;;;;;4.20;2.95;;;16.70;99.90;;;;;;6186224;23;20020;-66
2023/06/05 08:40:29;;;;;;;2.97;2.67;;;16.70;99.90;;;;;;6188455;23;20056;-67
2023/06/05 08:42:56;;;;;;;4.28;2.47;;;16.90;99.90;;;;;;6137422;23;20525;-66
2023/06/05 08:45:21;;;;;;;4.75;3.08;;;16.90;99.90;;;;;;6185969;23;20025;-66
2023/06/05 08:47:51;;;;;;;4.22;2.78;;;17.10;99.90;;;;;;6161264;23;20021;-66
2023/06/05 08:50:17;;;;;;;5.82;2.97;;;17.20;99.90;;;;;;6186257;23;20025;-66
2023/06/05 08:52:46;;;;;;;6.22;3.03;;;16.90;99.90;;;;;;6187816;23;20825;-66
2023/06/05 08:55:12;;;;;;;8.55;3.80;;;16.90;99.90;;;;;;6186948;23;20013;-66
2023/06/05 08:57:42;;;;;;;4.43;2.78;;;16.90;99.90;;;;;;6188234;23;20032;-67
2023/06/05 09:00:12;;;;;;;5.28;2.90;;;17.10;99.90;;;;;;6188172;23;20449;-66
2023/06/05 09:02:51;;;;;;;2.70;2.38;;;17.10;99.90;;;;;;6186826;23;20019;-66
2023/06/05 09:05:17;;;;;;;7.93;4.53;;;17.20;99.90;;;;;;6189262;23;20021;-66
2023/06/05 09:07:43;;;;;;;4.85;2.90;;;17.30;99.90;;;;;;6186933;23;20086;-66
2023/06/05 09:10:23;;;;;;;4.90;3.25;;;17.40;99.90;;;;;;6161641;23;20020;-66
2023/06/05 09:13:00;;;;;;;4.68;3.00;;;17.40;99.90;;;;;;6187940;23;20612;-66
2023/06/05 09:15:28;;;;;;;8.60;3.08;;;17.50;99.90;;;;;;6187106;23;20021;-66
2023/06/05 09:18:08;;;;;;;4.28;3.25;;;17.50;99.90;;;;;;6163422;23;20021;-66
2023/06/05 09:20:34;;;;;;;3.88;2.92;;;17.60;99.90;;;;;;6165509;23;20021;-66
2023/06/05 09:23:06;;;;;;;5.55;3.50;;;17.60;99.90;;;;;;6194699;23;20027;-66
2023/06/05 09:25:47;;;;;;;5.93;2.93;;;17.60;99.90;;;;;;6187795;23;20028;-66
2023/06/05 09:28:15;;;;;;;3.65;2.65;;;17.50;99.90;;;;;;6187341;23;20248;-66
2023/06/05 09:31:07;;;;;;;5.68;2.85;;;17.70;99.90;;;;;;6162195;23;20035;-66
2023/06/05 09:33:34;;;;;;;3.42;2.75;;;17.70;99.90;;;;;;6181516;23;20025;-66
2023/06/05 09:36:05;;;;;;;7.82;3.13;;;17.70;99.90;;;;;;6162056;23;20049;-66
2023/06/05 09:38:31;;;;;;;5.07;3.25;;;17.80;99.90;;;;;;6137122;23;20100;-66
2023/06/05 09:41:12;;;;;;;5.35;2.72;;;17.80;99.90;;;;;;6160888;23;20072;-66
2023/06/05 09:43:38;;;;;;;4.45;2.70;;;17.80;99.90;;;;;;6188816;23;20060;-65
2023/06/05 09:46:14;;;;;;;3.90;2.20;;;17.90;99.90;;;;;;6186919;23;20343;-66
2023/06/05 09:48:41;;;;;;;3.22;2.55;;;18.00;99.90;;;;;;6189109;23;20020;-66
2023/06/05 09:51:15;;;;;;;2.45;2.25;;;17.90;99.90;;;;;;6188131;23;20084;-66
2023/06/05 09:53:42;;;;;;;4.60;2.80;;;18.20;99.90;;;;;;6188009;23;20025;-66
2023/06/05 09:56:14;;;;;;;5.55;2.75;;;18.20;99.90;;;;;;6188847;23;20758;-64
2023/06/05 09:58:50;;;;;;;2.92;2.63;;;18.20;99.90;;;;;;6186990;23;20480;-66
2023/06/05 10:01:22;;;;;;;3.53;2.35;;;18.20;99.90;;;;;;6161961;23;20044;-66
2023/06/05 10:04:00;;;;;;;3.97;2.35;;;18.40;99.90;;;;;;6187469;23;20056;-66
2023/06/05 10:06:29;;;;;;;4.03;2.70;;;18.40;99.90;;;;;;6188111;23;20021;-67
2023/06/05 10:08:56;;;;;;;5.05;2.45;;;18.40;99.90;;;;;;6188964;23;20075;-72
2023/06/05 10:11:24;;;;;;;3.92;2.10;;;18.20;99.90;;;;;;6160235;23;20021;-72
2023/06/05 10:13:51;;;;;;;4.40;2.45;;;18.10;99.90;;;;;;6162453;23;20021;-72
2023/06/05 10:16:18;;;;;;;6.13;2.35;;;18.10;99.90;;;;;;6187148;23;20025;-73
2023/06/05 10:18:48;;;;;;;4.20;2.63;;;18.10;99.90;;;;;;6162215;23;20021;-67
2023/06/05 10:21:18;;;;;;;4.03;2.20;;;18.30;99.90;;;;;;6164147;23;20025;-74
2023/06/05 10:23:48;;;;;;;3.88;2.22;;;18.40;99.90;;;;;;6195909;23;20028;-68
2023/06/05 10:26:47;;;;;;;2.60;2.30;;;18.50;99.90;;;;;;6192427;23;20040;-68
2023/06/05 10:29:32;;;;;;;4.28;2.47;;;18.50;99.90;;;;;;6162354;23;20097;-67
2023/06/05 10:32:32;;;;;;;3.58;2.30;;;18.70;99.90;;;;;;6163456;23;20522;-67
2023/06/05 10:35:16;;;;;;;2.70;1.92;;;18.90;99.90;;;;;;6182607;23;20540;-67
2023/06/05 10:38:03;;;;;;;3.88;2.72;;;18.90;99.90;;;;;;6188814;23;20032;-67
2023/06/05 10:40:30;;;;;;;4.88;2.70;;;19.10;99.90;;;;;;6189724;23;20039;-68
2023/06/05 10:43:25;;;;;;;2.30;2.10;;;19.00;99.90;;;;;;6163665;23;20025;-67
2023/06/05 10:45:51;;;;;;;3.22;2.30;;;19.30;99.90;;;;;;6161985;23;20072;-69
2023/06/05 10:48:17;;;;;;;5.07;2.22;;;19.30;99.90;;;;;;6139588;23;20484;-73
2023/06/05 10:50:43;;;;;;;3.63;2.38;;;19.30;99.90;;;;;;6137425;23;20021;-67
2023/06/05 10:53:42;;;;;;;3.92;2.25;;;19.30;99.90;;;;;;6190082;23;20089;-67
2023/06/05 10:56:08;;;;;;;3.80;2.20;;;19.30;99.90;;;;;;6163845;23;20017;-67
2023/06/05 10:58:34;;;;;;;3.72;2.17;;;19.20;99.90;;;;;;6161013;23;20048;-67
2023/06/05 11:01:19;;;;;;;4.35;2.28;;;19.40;99.90;;;;;;6190191;23;20029;-67
2023/06/05 11:03:57;;;;;;;4.82;2.38;;;19.50;99.90;;;;;;6188514;23;20036;-68
2023/06/05 11:06:23;;;;;;;5.57;2.15;;;19.40;99.90;;;;;;6190336;23;20399;-68
2023/06/05 11:09:10;;;;;;;4.25;2.60;;;19.30;99.90;;;;;;6163639;23;20502;-67
2023/06/05 11:11:58;;;;;;;3.55;2.28;;;19.20;99.90;;;;;;6194747;23;20025;-67
2023/06/05 11:14:25;;;;;;;5.05;2.08;;;19.30;99.90;;;;;;6205780;23;20021;-67
2023/06/05 11:16:51;;;;;;;4.28;2.30;;;19.30;99.90;;;;;;6201105;23;20152;-67
2023/06/05 11:19:22;;;;;;;4.68;2.28;;;19.40;99.90;;;;;;6174049;23;20021;-67
2023/06/05 11:22:11;;;;;;;6.07;2.23;;;19.30;99.90;;;;;;6192478;23;20017;-67
2023/06/05 11:24:38;;;;;;;3.75;1.90;;;19.30;99.90;;;;;;6161749;23;20253;-67
2023/06/05 11:27:42;;;;;;;5.57;2.28;;;19.40;99.90;;;;;;6163457;23;20411;-67
2023/06/05 11:30:12;;;;;;;5.43;2.10;;;19.50;99.90;;;;;;6162729;23;20017;-67
2023/06/05 11:32:38;;;;;;;3.95;3.00;;;19.60;99.90;;;;;;6187227;23;20021;-67
2023/06/05 11:35:04;;;;;;;3.83;2.13;;;19.60;99.90;;;;;;6189846;23;20052;-69
2023/06/05 11:37:32;;;;;;;2.13;1.90;;;19.60;99.90;;;;;;6160577;23;20028;-67
2023/06/05 11:39:58;;;;;;;3.97;2.10;;;19.50;99.90;;;;;;6189505;23;20481;-67
2023/06/05 11:42:24;;;;;;;3.30;2.58;;;19.60;99.90;;;;;;6188387;23;20021;-67
2023/06/05 11:44:50;;;;;;;5.30;2.30;;;19.70;99.90;;;;;;6188421;23;20031;-67
2023/06/05 11:47:23;;;;;;;3.10;2.10;;;19.70;99.90;;;;;;6189517;23;20022;-66
2023/06/05 11:49:49;;;;;;;3.30;2.50;;;19.80;99.90;;;;;;6161227;23;20443;-67
2023/06/05 11:52:18;;;;;;;6.25;2.33;;;19.70;99.90;;;;;;6189821;23;20043;-66
2023/06/05 11:54:52;;;;;;;2.97;2.30;;;19.80;99.90;;;;;;6187706;23;20025;-65
2023/06/05 11:57:18;;;;;;;3.45;2.13;;;19.80;99.90;;;;;;6189551;23;20029;-67
2023/06/05 11:59:45;;;;;;;5.22;2.70;;;19.90;99.90;;;;;;6162073;23;20087;-67
2023/06/05 12:02:11;;;;;;;5.20;2.47;;;19.90;99.90;;;;;;6162194;23;20021;-67
2023/06/05 12:04:41;;;;;;;4.10;2.60;;;20.10;99.90;;;;;;6189927;23;20024;-67
2023/06/05 12:07:07;;;;;;;3.58;2.65;;;20.00;99.90;;;;;;6160854;23;20017;-67
2023/06/05 12:09:33;;;;;;;3.00;2.55;;;20.00;99.90;;;;;;6163380;23;20132;-67
2023/06/05 12:12:07;;;;;;;3.25;2.60;;;20.00;99.90;;;;;;6161146;23;20056;-67
2023/06/05 12:14:33;;;;;;;3.75;2.13;;;20.00;99.90;;;;;;6162903;23;20028;-67
2023/06/05 12:17:08;;;;;;;3.15;2.25;;;20.00;99.90;;;;;;6189182;23;20057;-68
2023/06/05 12:19:34;;;;;;;3.35;2.30;;;20.30;99.90;;;;;;6188409;23;20689;-67
2023/06/05 12:22:05;;;;;;;5.25;2.80;;;20.20;99.90;;;;;;6163328;23;20017;-67
2023/06/05 12:24:32;;;;;;;12.82;2.50;;;20.20;99.90;;;;;;6160921;23;20025;-67
2023/06/05 12:27:03;;;;;;;4.57;2.40;;;20.30;99.90;;;;;;6189977;23;20039;-67
2023/06/05 12:29:32;;;;;;;4.10;2.25;;;20.40;99.90;;;;;;6188385;23;20051;-67
2023/06/05 12:32:00;;;;;;;3.35;2.78;;;20.40;99.90;;;;;;6162465;23;20021;-67
2023/06/05 12:34:44;;;;;;;4.25;2.67;;;20.40;99.90;;;;;;6163165;23;20036;-67
2023/06/05 12:37:12;;;;;;;5.63;2.40;;;20.60;99.90;;;;;;6187378;23;20017;-67
2023/06/05 12:39:38;;;;;;;4.32;2.30;;;20.60;99.90;;;;;;6189696;23;20029;-67
2023/06/05 12:42:05;;;;;;;4.88;2.30;;;20.70;99.90;;;;;;6187729;23;20021;-67
2023/06/05 12:44:30;;;;;;;4.03;2.05;;;20.50;99.90;;;;;;6162241;23;20036;-67
2023/06/05 12:46:57;;;;;;;4.35;2.38;;;20.60;99.90;;;;;;6162000;23;20025;-68
2023/06/05 12:49:22;;;;;;;4.38;2.92;;;20.80;99.90;;;;;;6161451;23;20068;-72
2023/06/05 12:51:48;;;;;;;6.50;2.38;;;20.70;99.90;;;;;;6162430;23;20017;-66
2023/06/05 12:54:17;;;;;;;4.70;2.30;;;20.90;99.90;;;;;;6186091;23;20025;-66